Time;durP1;ratioP1;P1;durP2;ratioP2;P2;SDS_P1;SDS_P2;PMS_P1;PMS_P2;Temp;Humidity;BMP_temperature;BMP_pressure;BME280_temperature;BME280_humidity;BME280_pressure;Samples;Min_cycle;Max_cycle;Signal;HPM_P1;HPM_P2
2022/12/08 00:01:09;;;;;;;5.03;1.20;;;3.20;94.20;;;;;;5071836;28;20138;-79
2022/12/08 00:03:36;;;;;;;5.80;2.40;;;3.30;94.20;;;;;;5071837;28;20434;-79
2022/12/08 00:11:32;;;;;;;;;;;3.20;94.20;;;;;;5071892;28;20048;-81
2022/12/08 00:13:58;;;;;;;3.30;0.90;;;3.20;94.00;;;;;;5038447;28;19920;-80
2022/12/08 00:16:24;;;;;;;2.05;0.63;;;3.10;94.00;;;;;;5054752;28;20040;-80
2022/12/08 00:18:50;;;;;;;3.53;0.45;;;3.00;94.00;;;;;;5071394;28;20127;-82
2022/12/08 00:21:16;;;;;;;4.57;0.55;;;2.90;94.00;;;;;;5054911;28;20044;-77
2022/12/08 00:23:41;;;;;;;2.28;0.40;;;2.90;94.00;;;;;;5054573;28;20040;-80
2022/12/08 00:26:07;;;;;;;1.08;0.40;;;2.90;94.10;;;;;;5054662;28;20127;-81
2022/12/08 00:28:33;;;;;;;3.03;0.50;;;2.90;94.10;;;;;;5038033;28;20047;-80
2022/12/08 00:31:05;;;;;;;1.77;0.50;;;2.90;94.10;;;;;;5054797;28;20507;-77
2022/12/08 00:33:31;;;;;;;2.88;1.10;;;2.80;94.20;;;;;;5054439;28;20036;-78
2022/12/08 00:35:57;;;;;;;2.78;0.63;;;2.80;94.30;;;;;;5071170;28;20101;-82
2022/12/08 00:38:22;;;;;;;2.33;0.63;;;2.80;94.20;;;;;;5037990;28;20039;-77
2022/12/08 00:40:48;;;;;;;4.32;1.00;;;2.80;94.40;;;;;;5054535;28;20044;-81
2022/12/08 00:43:14;;;;;;;2.63;1.40;;;2.80;94.50;;;;;;5071030;28;20041;-79
2022/12/08 00:45:40;;;;;;;2.10;0.90;;;2.70;94.50;;;;;;5070972;28;20051;-76
2022/12/08 00:48:06;;;;;;;1.20;0.70;;;2.80;94.60;;;;;;5054338;28;20047;-79
2022/12/08 00:50:31;;;;;;;3.13;0.40;;;2.80;94.70;;;;;;5037829;28;20040;-77
2022/12/08 00:52:57;;;;;;;2.40;0.50;;;2.80;94.70;;;;;;5070782;28;20105;-79
2022/12/08 00:55:23;;;;;;;1.20;0.40;;;2.80;94.70;;;;;;5054624;28;20051;-78
2022/12/08 00:57:48;;;;;;;5.68;1.10;;;2.80;94.70;;;;;;5071272;28;20091;-76
2022/12/08 01:00:15;;;;;;;6.00;1.13;;;2.80;94.80;;;;;;5054326;28;20481;-78
2022/12/08 01:02:41;;;;;;;2.85;0.90;;;2.80;94.80;;;;;;5054307;28;20044;-82
2022/12/08 01:05:07;;;;;;;4.57;0.82;;;2.80;94.90;;;;;;5071086;28;20113;-80
2022/12/08 01:07:33;;;;;;;3.00;0.90;;;3.00;95.00;;;;;;5071425;28;20036;-79
2022/12/08 01:09:58;;;;;;;3.03;0.60;;;3.00;94.90;;;;;;5074207;28;20044;-80
2022/12/08 01:12:24;;;;;;;3.35;0.80;;;3.00;94.80;;;;;;5057680;28;20091;-78
2022/12/08 01:14:49;;;;;;;2.78;0.85;;;3.20;94.70;;;;;;5074362;28;20094;-79
2022/12/08 01:17:15;;;;;;;4.43;1.25;;;3.10;94.50;;;;;;5074368;28;20045;-77
2022/12/08 01:19:41;;;;;;;5.70;0.90;;;3.10;94.60;;;;;;5057891;28;20123;-79
2022/12/08 01:22:06;;;;;;;4.28;0.70;;;3.00;94.60;;;;;;5074397;28;20476;-78
2022/12/08 01:24:32;;;;;;;2.47;0.60;;;3.00;94.60;;;;;;5057700;28;20448;-79
2022/12/08 01:26:58;;;;;;;3.22;0.52;;;2.90;94.70;;;;;;5057456;28;20071;-79
2022/12/08 01:29:26;;;;;;;5.10;0.70;;;2.90;94.70;;;;;;5074455;28;20041;-79
2022/12/08 01:31:51;;;;;;;4.13;0.70;;;2.90;94.70;;;;;;5057322;28;20070;-78
2022/12/08 01:34:17;;;;;;;2.13;0.55;;;2.90;94.90;;;;;;5057623;28;20028;-78
2022/12/08 01:36:43;;;;;;;2.53;0.63;;;2.90;94.80;;;;;;5073948;28;20036;-77
2022/12/08 01:39:18;;;;;;;2.38;0.70;;;2.90;94.90;;;;;;5074263;28;20151;-80
2022/12/08 01:41:45;;;;;;;2.50;0.82;;;2.90;95.00;;;;;;5057179;28;20033;-76
2022/12/08 01:44:11;;;;;;;3.30;0.90;;;2.90;95.00;;;;;;5057308;28;20135;-79
2022/12/08 01:46:47;;;;;;;1.95;0.60;;;2.90;95.00;;;;;;5056881;28;20445;-78
2022/12/08 01:49:16;;;;;;;3.13;0.55;;;3.00;95.20;;;;;;5041012;28;20358;-79
2022/12/08 01:51:49;;;;;;;3.50;0.68;;;3.00;95.00;;;;;;5056970;28;20599;-79
2022/12/08 01:54:15;;;;;;;2.47;0.60;;;2.90;95.00;;;;;;5057269;28;20055;-78
2022/12/08 01:56:49;;;;;;;2.08;0.40;;;3.00;95.00;;;;;;5040404;28;20041;-79
2022/12/08 01:59:16;;;;;;;3.08;0.40;;;3.00;94.90;;;;;;5056955;28;20033;-76
2022/12/08 02:01:41;;;;;;;2.55;0.60;;;3.10;94.90;;;;;;5056961;28;20032;-79
2022/12/08 02:04:09;;;;;;;4.95;0.60;;;3.10;94.70;;;;;;5056648;28;20127;-77
2022/12/08 02:06:39;;;;;;;2.47;0.55;;;3.30;94.90;;;;;;5056722;28;20133;-79
2022/12/08 02:09:05;;;;;;;2.78;1.02;;;3.20;94.60;;;;;;5073621;28;20036;-78
2022/12/08 02:11:31;;;;;;;4.47;0.70;;;3.30;94.60;;;;;;5056802;28;20414;-80
2022/12/08 02:13:58;;;;;;;5.88;0.88;;;3.30;94.40;;;;;;5040035;28;20041;-81
2022/12/08 02:16:44;;;;;;;4.55;0.73;;;3.30;94.40;;;;;;5056699;28;20119;-79
2022/12/08 02:19:22;;;;;;;2.17;0.38;;;3.20;94.40;;;;;;5056464;28;20048;-79
2022/12/08 02:21:55;;;;;;;2.38;0.50;;;3.20;94.30;;;;;;5073293;28;20044;-77
2022/12/08 02:25:05;;;;;;;1.05;0.50;;;3.30;94.30;;;;;;5072961;28;20119;-81
2022/12/08 02:27:48;;;;;;;2.20;0.50;;;3.20;94.30;;;;;;5048220;28;20048;-76
2022/12/08 02:30:48;;;;;;;2.42;0.30;;;3.20;94.30;;;;;;5073226;28;20040;-80
2022/12/08 02:33:45;;;;;;;1.63;0.40;;;3.20;94.30;;;;;;5056231;28;20044;-80
2022/12/08 02:36:41;;;;;;;0.85;0.35;;;3.20;94.50;;;;;;5072889;28;20046;-79
2022/12/08 02:39:17;;;;;;;1.23;0.40;;;3.30;94.50;;;;;;5073070;28;20130;-78
2022/12/08 02:42:14;;;;;;;0.75;0.25;;;3.30;93.40;;;;;;5072973;28;20072;-79
2022/12/08 02:44:57;;;;;;;4.93;1.30;;;3.10;92.90;;;;;;5072363;28;20093;-79
2022/12/08 02:47:25;;;;;;;1.33;0.40;;;2.90;93.30;;;;;;5072665;28;20524;-80
2022/12/08 02:49:51;;;;;;;2.25;0.35;;;2.70;93.20;;;;;;5056200;28;20440;-80
2022/12/08 02:52:17;;;;;;;3.15;0.47;;;2.60;93.50;;;;;;5055732;28;20150;-78
2022/12/08 02:54:50;;;;;;;3.28;0.68;;;2.50;93.70;;;;;;5072541;28;20195;-79
2022/12/08 02:57:44;;;;;;;2.65;0.80;;;2.50;93.90;;;;;;5072758;28;20389;-80
2022/12/08 03:00:12;;;;;;;1.80;0.77;;;2.40;94.00;;;;;;5055765;28;20045;-77
2022/12/08 03:03:06;;;;;;;1.80;0.55;;;2.40;94.10;;;;;;5072546;28;20110;-77
2022/12/08 03:05:38;;;;;;;2.17;0.70;;;2.40;94.20;;;;;;5055804;28;20044;-81
2022/12/08 03:08:27;;;;;;;1.20;0.38;;;2.40;94.30;;;;;;5072145;28;20044;-78
2022/12/08 03:11:03;;;;;;;1.70;0.50;;;2.40;94.30;;;;;;5072289;28;20115;-78
2022/12/08 03:13:35;;;;;;;3.03;0.60;;;2.40;94.30;;;;;;5055631;28;20079;-79
2022/12/08 03:16:05;;;;;;;1.98;0.57;;;2.30;94.40;;;;;;5072073;28;20523;-80
2022/12/08 03:18:35;;;;;;;4.85;1.23;;;2.30;94.50;;;;;;5055681;28;20040;-78
2022/12/08 03:21:02;;;;;;;8.70;2.20;;;2.30;94.60;;;;;;5072094;28;20040;-80
2022/12/08 03:23:29;;;;;;;3.45;1.50;;;2.20;94.60;;;;;;5055530;28;20056;-78
2022/12/08 03:26:26;;;;;;;4.85;1.45;;;2.30;94.70;;;;;;5038768;28;20044;-78
2022/12/08 03:28:52;;;;;;;6.90;1.70;;;2.20;94.70;;;;;;5051541;28;20048;-79
2022/12/08 03:31:19;;;;;;;7.72;1.50;;;2.10;94.90;;;;;;5055036;28;20567;-78
2022/12/08 03:33:50;;;;;;;3.50;1.65;;;2.10;94.80;;;;;;5038510;28;20040;-79
2022/12/08 03:36:16;;;;;;;5.68;1.70;;;2.10;95.00;;;;;;5055211;28;20090;-78
2022/12/08 03:38:44;;;;;;;4.72;1.80;;;2.00;95.00;;;;;;5038509;28;20040;-79
2022/12/08 03:41:19;;;;;;;8.57;2.38;;;2.00;94.90;;;;;;5055102;28;20036;-79
2022/12/08 03:43:52;;;;;;;9.02;4.82;;;1.90;95.00;;;;;;5071928;28;20133;-79
2022/12/08 03:46:20;;;;;;;8.32;4.00;;;2.00;95.00;;;;;;5054715;28;20088;-78
2022/12/08 03:48:47;;;;;;;9.55;2.95;;;1.90;95.10;;;;;;5038627;28;20045;-79
2022/12/08 03:51:13;;;;;;;8.43;2.22;;;1.90;95.10;;;;;;5038607;28;20044;-77
2022/12/08 03:53:39;;;;;;;6.70;2.40;;;1.80;95.20;;;;;;5071592;28;20476;-77
2022/12/08 03:56:13;;;;;;;6.78;2.22;;;1.80;95.20;;;;;;5071871;28;20040;-79
2022/12/08 03:58:39;;;;;;;5.40;1.35;;;1.80;95.30;;;;;;5071706;28;20078;-78
2022/12/08 04:01:05;;;;;;;4.22;1.30;;;1.90;95.50;;;;;;5038574;28;20126;-78
2022/12/08 04:03:30;;;;;;;4.80;0.90;;;1.90;95.50;;;;;;5038250;28;20040;-77
2022/12/08 04:05:56;;;;;;;2.47;0.60;;;1.80;95.50;;;;;;5054852;28;20397;-78
2022/12/08 04:08:21;;;;;;;5.50;0.73;;;1.80;95.60;;;;;;5055020;28;20032;-79
2022/12/08 04:10:47;;;;;;;3.17;0.55;;;1.90;95.60;;;;;;5038464;28;20411;-77
2022/12/08 04:13:13;;;;;;;3.08;0.52;;;1.80;95.60;;;;;;5038107;28;20392;-78
2022/12/08 04:15:39;;;;;;;1.70;0.55;;;1.90;95.60;;;;;;5054803;28;20052;-77
2022/12/08 04:18:04;;;;;;;3.33;0.50;;;1.80;95.70;;;;;;5038143;28;20080;-77
2022/12/08 04:20:30;;;;;;;5.97;0.60;;;1.80;95.60;;;;;;5054736;28;20045;-80
2022/12/08 04:22:55;;;;;;;3.15;0.50;;;1.80;95.70;;;;;;5071240;28;20045;-78
2022/12/08 04:25:21;;;;;;;3.03;0.70;;;1.80;95.70;;;;;;5054580;28;20040;-79
2022/12/08 04:27:47;;;;;;;1.65;0.40;;;1.80;95.80;;;;;;5054715;28;20093;-78
2022/12/08 04:30:12;;;;;;;2.25;0.40;;;1.80;95.80;;;;;;5021624;28;20044;-79
2022/12/08 04:32:38;;;;;;;2.53;0.60;;;1.80;95.70;;;;;;5071212;28;20040;-78
2022/12/08 04:35:04;;;;;;;2.65;0.50;;;1.80;95.80;;;;;;5038270;28;20051;-77
2022/12/08 04:37:30;;;;;;;2.38;0.50;;;1.80;95.90;;;;;;5071396;28;20150;-80
2022/12/08 04:39:55;;;;;;;2.97;0.65;;;1.80;96.00;;;;;;5054798;28;20496;-79
2022/12/08 04:42:21;;;;;;;3.00;0.40;;;1.80;96.00;;;;;;5038074;28;20523;-77
2022/12/08 04:44:46;;;;;;;2.15;0.60;;;1.90;95.90;;;;;;5057697;28;20403;-79
2022/12/08 04:47:12;;;;;;;2.85;0.50;;;1.90;96.00;;;;;;5058284;28;20044;-79
2022/12/08 04:49:38;;;;;;;3.70;0.52;;;2.00;95.80;;;;;;5074879;28;20047;-78
2022/12/08 04:52:04;;;;;;;5.28;0.77;;;2.00;95.80;;;;;;5058078;28;20090;-78
2022/12/08 04:54:29;;;;;;;3.83;0.50;;;2.00;95.90;;;;;;5041563;28;20032;-77
2022/12/08 04:56:55;;;;;;;1.88;0.40;;;2.00;95.80;;;;;;5041841;28;20095;-77
2022/12/08 04:59:20;;;;;;;2.85;0.70;;;2.00;95.80;;;;;;5041505;28;20504;-79
2022/12/08 05:01:46;;;;;;;4.43;0.73;;;2.00;95.80;;;;;;5074599;28;20446;-79
2022/12/08 05:04:12;;;;;;;3.92;0.68;;;2.00;95.90;;;;;;5057947;28;20047;-80
2022/12/08 05:06:37;;;;;;;2.75;0.60;;;2.00;95.80;;;;;;5041321;28;20102;-77
2022/12/08 05:09:03;;;;;;;2.03;0.50;;;1.90;95.90;;;;;;5041230;28;20044;-80
2022/12/08 05:11:29;;;;;;;3.35;0.63;;;1.90;95.80;;;;;;5057845;28;20082;-80
2022/12/08 05:13:54;;;;;;;1.85;0.60;;;1.90;95.90;;;;;;5057729;28;20124;-77
2022/12/08 05:16:20;;;;;;;2.05;0.63;;;1.90;95.80;;;;;;5074383;28;20131;-79
2022/12/08 05:18:46;;;;;;;3.28;0.70;;;1.90;95.90;;;;;;5057703;28;20048;-79
2022/12/08 05:21:11;;;;;;;3.58;0.57;;;1.90;95.90;;;;;;5057971;28;20495;-78
2022/12/08 05:23:37;;;;;;;3.85;0.70;;;1.90;96.00;;;;;;5057422;28;20068;-77
2022/12/08 05:26:03;;;;;;;3.28;0.60;;;1.90;95.90;;;;;;5074128;28;20195;-78
2022/12/08 05:28:29;;;;;;;2.83;0.60;;;2.00;96.10;;;;;;5057545;28;20044;-79
2022/12/08 05:30:54;;;;;;;3.17;0.70;;;2.00;96.10;;;;;;5057543;28;20149;-76
2022/12/08 05:33:20;;;;;;;2.17;0.52;;;2.00;96.00;;;;;;5040980;28;20032;-79
2022/12/08 05:35:46;;;;;;;5.03;0.70;;;1.90;96.00;;;;;;5057437;28;20036;-78
2022/12/08 05:38:11;;;;;;;3.63;0.50;;;2.00;96.10;;;;;;5057311;28;20036;-77
2022/12/08 05:40:42;;;;;;;2.15;0.70;;;2.00;95.90;;;;;;5057357;28;20076;-77
2022/12/08 05:43:08;;;;;;;2.17;0.50;;;2.10;95.80;;;;;;5073992;28;20131;-78
2022/12/08 05:45:34;;;;;;;4.82;0.75;;;2.10;95.80;;;;;;5040329;28;20084;-77
2022/12/08 05:48:00;;;;;;;2.90;0.80;;;2.20;95.80;;;;;;5074001;28;20097;-76
2022/12/08 05:50:25;;;;;;;3.55;0.60;;;2.20;95.80;;;;;;5040480;28;20037;-76
2022/12/08 05:52:51;;;;;;;3.08;0.60;;;2.20;95.80;;;;;;5056913;28;20032;-76
2022/12/08 05:55:17;;;;;;;10.93;8.30;;;2.30;95.80;;;;;;5056535;28;20040;-77
2022/12/08 05:57:43;;;;;;;10.38;6.75;;;2.20;95.90;;;;;;5040592;28;20040;-78
2022/12/08 06:00:09;;;;;;;7.95;6.20;;;2.30;95.90;;;;;;5023765;28;20044;-77
2022/12/08 06:02:35;;;;;;;6.78;3.95;;;2.30;95.90;;;;;;5073670;28;20041;-77
2022/12/08 06:05:00;;;;;;;4.35;2.22;;;2.30;95.90;;;;;;5040099;28;20503;-77
2022/12/08 06:07:26;;;;;;;3.40;2.00;;;2.30;95.90;;;;;;5040434;28;20044;-78
2022/12/08 06:09:52;;;;;;;7.60;4.50;;;2.30;95.80;;;;;;5056755;28;20032;-80
2022/12/08 06:12:17;;;;;;;8.70;5.80;;;2.30;95.80;;;;;;5023524;28;20036;-78
2022/12/08 06:14:43;;;;;;;10.60;5.57;;;2.20;95.80;;;;;;5056553;28;20046;-77
2022/12/08 06:17:09;;;;;;;4.20;1.60;;;2.30;95.80;;;;;;5056840;28;20059;-78
2022/12/08 06:19:34;;;;;;;6.55;1.42;;;2.30;95.80;;;;;;5056455;28;20484;-78
2022/12/08 06:22:00;;;;;;;3.75;2.13;;;2.20;95.70;;;;;;5056628;28;20052;-79
2022/12/08 06:24:26;;;;;;;11.85;5.70;;;2.20;95.70;;;;;;5039797;28;20497;-76
2022/12/08 06:26:51;;;;;;;9.93;6.60;;;2.10;95.60;;;;;;5073024;28;20032;-78
2022/12/08 06:29:17;;;;;;;5.53;3.88;;;2.10;95.60;;;;;;5040014;28;20036;-77
2022/12/08 06:31:43;;;;;;;8.90;3.92;;;2.10;95.50;;;;;;5039624;28;20469;-79
2022/12/08 06:34:08;;;;;;;6.10;3.95;;;2.00;95.60;;;;;;5072872;28;20044;-78
2022/12/08 06:36:34;;;;;;;6.63;3.20;;;2.00;95.70;;;;;;5072875;28;20083;-78
2022/12/08 06:39:00;;;;;;;5.80;3.03;;;1.90;95.70;;;;;;5072765;28;20055;-78
2022/12/08 06:41:26;;;;;;;9.50;2.53;;;1.90;95.70;;;;;;5056391;28;20079;-79
2022/12/08 06:43:55;;;;;;;6.40;1.65;;;1.80;95.80;;;;;;5055923;28;20038;-77
2022/12/08 06:46:21;;;;;;;6.63;1.75;;;1.80;95.70;;;;;;5055696;28;20053;-77
2022/12/08 06:48:47;;;;;;;3.05;0.98;;;1.70;95.70;;;;;;5022848;28;20050;-78
2022/12/08 06:51:16;;;;;;;4.43;1.25;;;1.70;95.70;;;;;;5072495;28;20049;-79
2022/12/08 06:53:43;;;;;;;4.45;1.38;;;1.60;95.70;;;;;;5072469;28;20124;-78
2022/12/08 06:56:10;;;;;;;6.80;1.42;;;1.60;95.70;;;;;;5055837;28;20044;-77
2022/12/08 06:58:35;;;;;;;3.25;1.20;;;1.60;95.70;;;;;;5072601;28;20443;-77
2022/12/08 07:01:10;;;;;;;3.80;0.93;;;1.60;95.70;;;;;;5055868;28;20040;-77
2022/12/08 07:03:36;;;;;;;;;;;1.50;95.50;;;;;;5072888;28;20036;-78
2022/12/08 07:06:02;;;;;;;5.95;1.50;;;1.40;95.60;;;;;;5054871;28;20288;-79
2022/12/08 07:08:28;;;;;;;5.75;2.38;;;1.40;95.70;;;;;;5055730;28;20040;-77
2022/12/08 07:10:53;;;;;;;5.32;1.52;;;1.40;95.70;;;;;;5055893;28;20074;-78
2022/12/08 07:13:19;;;;;;;4.50;2.25;;;1.40;95.80;;;;;;5055359;28;20577;-81
2022/12/08 07:15:45;;;;;;;5.05;1.85;;;1.30;95.80;;;;;;5055631;28;20086;-77
2022/12/08 07:18:10;;;;;;;7.13;2.10;;;1.30;95.80;;;;;;5038739;28;20078;-80
2022/12/08 07:20:36;;;;;;;11.13;2.30;;;1.30;95.80;;;;;;5055713;28;20052;-78
2022/12/08 07:23:02;;;;;;;3.75;1.88;;;1.30;95.80;;;;;;5071897;28;20547;-78
2022/12/08 07:25:27;;;;;;;3.15;1.30;;;1.20;95.80;;;;;;5055267;28;20063;-78
2022/12/08 07:27:53;;;;;;;6.68;1.42;;;1.20;95.80;;;;;;5055346;28;20393;-77
2022/12/08 07:30:19;;;;;;;6.55;1.60;;;1.10;95.80;;;;;;5055125;28;20036;-79
2022/12/08 07:32:45;;;;;;;5.40;1.00;;;1.10;95.90;;;;;;5054866;28;20144;-76
2022/12/08 07:35:11;;;;;;;6.63;1.65;;;1.10;95.80;;;;;;5055064;28;20090;-75
2022/12/08 07:37:37;;;;;;;5.75;1.65;;;1.10;95.80;;;;;;5055034;28;20534;-78
2022/12/08 07:40:05;;;;;;;6.25;1.65;;;1.10;95.80;;;;;;5071677;28;20097;-79
2022/12/08 07:42:30;;;;;;;7.25;2.40;;;1.00;95.90;;;;;;5054798;28;20045;-75
2022/12/08 07:44:56;;;;;;;6.90;2.03;;;1.10;95.80;;;;;;5071542;28;20131;-77
2022/12/08 07:47:22;;;;;;;6.05;1.80;;;1.00;95.80;;;;;;5054663;28;20508;-75
2022/12/08 07:49:47;;;;;;;6.05;1.50;;;1.00;95.70;;;;;;5055061;28;20044;-79
2022/12/08 07:52:13;;;;;;;6.63;1.88;;;1.00;95.80;;;;;;5071531;28;20381;-79
2022/12/08 07:54:39;;;;;;;7.38;1.58;;;1.10;95.70;;;;;;5054898;28;20044;-77
2022/12/08 07:57:05;;;;;;;7.13;2.05;;;1.10;95.70;;;;;;5055122;28;20043;-80
2022/12/08 07:59:31;;;;;;;8.25;2.47;;;1.10;95.60;;;;;;5071732;28;20059;-80
2022/12/08 08:01:57;;;;;;;12.43;3.42;;;1.10;95.60;;;;;;5070259;28;20044;-77
2022/12/08 08:04:23;;;;;;;8.30;4.85;;;1.00;95.60;;;;;;5053764;28;20192;-77
2022/12/08 08:06:48;;;;;;;12.27;6.22;;;1.10;95.60;;;;;;5054527;28;20056;-78
2022/12/08 08:09:14;;;;;;;20.73;9.63;;;1.10;95.60;;;;;;5071484;28;20040;-78
2022/12/08 08:11:40;;;;;;;24.83;12.23;;;1.10;95.60;;;;;;5021551;28;20067;-78
2022/12/08 08:14:06;;;;;;;25.15;12.25;;;1.00;95.60;;;;;;5071486;28;20076;-77
2022/12/08 08:16:31;;;;;;;18.85;7.32;;;1.00;95.50;;;;;;5037940;28;20072;-77
2022/12/08 08:18:57;;;;;;;13.25;7.32;;;1.00;95.50;;;;;;5058758;28;20044;-76
2022/12/08 08:21:22;;;;;;;15.63;5.93;;;1.00;95.40;;;;;;5075664;28;20096;-78
2022/12/08 08:23:48;;;;;;;19.90;7.72;;;1.00;95.50;;;;;;5058637;28;20044;-76
2022/12/08 08:26:14;;;;;;;30.83;8.52;;;1.00;95.40;;;;;;5058526;28;20040;-75
2022/12/08 08:28:40;;;;;;;16.63;6.65;;;1.00;95.40;;;;;;5075514;28;20059;-75
2022/12/08 08:31:06;;;;;;;21.38;8.77;;;0.90;95.40;;;;;;5058712;28;20097;-78
2022/12/08 08:33:32;;;;;;;21.25;10.20;;;1.00;95.40;;;;;;5041800;28;20037;-78
2022/12/08 08:35:57;;;;;;;25.17;11.63;;;1.00;95.30;;;;;;5046468;28;20400;-78
2022/12/08 08:38:23;;;;;;;16.95;8.95;;;1.00;95.40;;;;;;5058382;28;20041;-81
2022/12/08 08:40:49;;;;;;;25.42;7.97;;;1.00;95.50;;;;;;5058450;28;20086;-78
2022/12/08 08:43:30;;;;;;;14.07;3.53;;;1.10;95.50;;;;;;5058262;28;20040;-77
2022/12/08 08:46:00;;;;;;;7.18;2.63;;;1.10;95.50;;;;;;5060399;28;20523;-77
2022/12/08 08:48:28;;;;;;;9.05;2.25;;;1.10;95.50;;;;;;5058102;28;20057;-77
2022/12/08 08:50:54;;;;;;;7.82;2.97;;;1.20;95.40;;;;;;5058133;28;20471;-78
2022/12/08 08:53:20;;;;;;;7.95;2.20;;;1.20;95.30;;;;;;5058091;28;20076;-78
2022/12/08 08:55:46;;;;;;;3.78;1.70;;;1.30;95.30;;;;;;5074937;28;20080;-78
2022/12/08 08:58:12;;;;;;;5.78;1.80;;;1.30;95.20;;;;;;5058114;28;20090;-79
2022/12/08 09:00:38;;;;;;;4.85;1.92;;;1.40;95.20;;;;;;5074717;28;20044;-77
2022/12/08 09:03:03;;;;;;;7.38;1.77;;;1.30;95.10;;;;;;5074523;28;20136;-78
2022/12/08 09:05:29;;;;;;;5.35;1.67;;;1.40;95.10;;;;;;5071470;28;20048;-80
2022/12/08 09:07:54;;;;;;;8.52;1.98;;;1.40;95.10;;;;;;5041282;28;20048;-77
2022/12/08 09:10:20;;;;;;;4.05;1.58;;;1.40;95.10;;;;;;5041265;28;20036;-77
2022/12/08 09:12:46;;;;;;;6.88;2.95;;;1.40;95.10;;;;;;5057940;28;20036;-76
2022/12/08 09:15:11;;;;;;;6.10;2.25;;;1.40;95.00;;;;;;5041202;28;20131;-78
2022/12/08 09:17:37;;;;;;;8.27;2.88;;;1.40;95.00;;;;;;5074410;28;20052;-77
2022/12/08 09:20:05;;;;;;;11.65;4.00;;;1.50;95.00;;;;;;5057902;28;20044;-76
2022/12/08 09:22:30;;;;;;;12.45;5.38;;;1.50;95.00;;;;;;5072059;28;20044;-75
2022/12/08 09:24:56;;;;;;;10.90;3.45;;;1.50;95.00;;;;;;5056521;28;20036;-78
2022/12/08 09:27:21;;;;;;;13.68;4.38;;;1.50;95.00;;;;;;5061472;28;20033;-77
2022/12/08 09:29:47;;;;;;;9.05;4.57;;;1.50;95.00;;;;;;5042275;28;20041;-77
2022/12/08 09:32:13;;;;;;;10.23;3.85;;;1.60;95.00;;;;;;5064531;28;20036;-78
2022/12/08 09:34:38;;;;;;;11.40;4.75;;;1.60;95.10;;;;;;5063875;28;20072;-79
2022/12/08 09:37:04;;;;;;;11.57;4.30;;;1.70;95.10;;;;;;5043232;28;20135;-76
2022/12/08 09:39:30;;;;;;;10.07;5.60;;;1.70;95.00;;;;;;5031798;28;20051;-77
2022/12/08 09:42:01;;;;;;;9.80;3.13;;;1.80;95.00;;;;;;5053898;28;20121;-79
2022/12/08 09:44:39;;;;;;;8.80;2.90;;;1.90;94.90;;;;;;5057106;28;20544;-75
2022/12/08 09:47:18;;;;;;;7.53;2.22;;;2.00;94.90;;;;;;5073604;28;20149;-79
2022/12/08 09:49:50;;;;;;;8.68;2.88;;;2.00;94.80;;;;;;5073868;28;20084;-77
2022/12/08 09:52:35;;;;;;;5.40;2.58;;;2.10;94.70;;;;;;5057252;28;20400;-74
2022/12/08 09:55:08;;;;;;;9.23;2.60;;;2.10;94.60;;;;;;5057282;28;20131;-75
2022/12/08 09:57:34;;;;;;;8.05;2.67;;;2.10;94.40;;;;;;5073915;28;20120;-76
2022/12/08 10:00:04;;;;;;;6.53;3.20;;;2.10;94.20;;;;;;5073540;28;20514;-79
2022/12/08 10:02:30;;;;;;;5.07;2.40;;;2.10;94.40;;;;;;5073394;28;20558;-78
2022/12/08 10:04:57;;;;;;;9.15;2.47;;;2.10;94.00;;;;;;5040164;28;20041;-80
2022/12/08 10:07:34;;;;;;;7.28;2.10;;;2.10;94.10;;;;;;5057002;28;20511;-77
2022/12/08 10:10:18;;;;;;;4.85;2.60;;;2.30;94.30;;;;;;5056707;28;20041;-77
2022/12/08 10:12:46;;;;;;;3.50;2.08;;;2.30;94.30;;;;;;5056651;28;20118;-81
2022/12/08 10:15:25;;;;;;;7.70;3.60;;;2.30;94.20;;;;;;5073324;28;20514;-77
2022/12/08 10:17:53;;;;;;;9.55;2.75;;;2.50;94.20;;;;;;5073324;28;20051;-80
2022/12/08 10:20:22;;;;;;;6.53;2.00;;;2.60;94.20;;;;;;5056861;28;20473;-80
2022/12/08 10:23:21;;;;;;;6.93;1.58;;;2.70;94.00;;;;;;5073114;28;20516;-81
2022/12/08 10:25:57;;;;;;;7.93;2.10;;;2.80;94.00;;;;;;5052542;28;20116;-79
2022/12/08 10:28:22;;;;;;;8.05;2.03;;;2.90;93.70;;;;;;5056451;28;20125;-77
2022/12/08 10:30:48;;;;;;;5.95;2.10;;;3.00;93.80;;;;;;5039788;28;20072;-78
2022/12/08 10:33:19;;;;;;;8.27;3.17;;;3.00;93.70;;;;;;5039743;28;20036;-79
2022/12/08 10:35:47;;;;;;;7.38;1.65;;;2.90;93.40;;;;;;5073146;28;20422;-80
2022/12/08 10:38:28;;;;;;;5.10;1.65;;;2.90;93.50;;;;;;5056182;28;20491;-80
2022/12/08 10:41:05;;;;;;;4.93;2.05;;;2.80;93.40;;;;;;5072863;28;20044;-81
2022/12/08 10:43:32;;;;;;;6.15;2.45;;;2.70;93.50;;;;;;5072133;28;20514;-79
2022/12/08 10:46:11;;;;;;;11.63;4.55;;;2.70;93.50;;;;;;5054959;28;20045;-79
2022/12/08 10:48:50;;;;;;;9.15;3.15;;;2.70;93.50;;;;;;5055153;28;20080;-79
2022/12/08 10:51:38;;;;;;;6.18;2.20;;;2.70;93.60;;;;;;5072094;28;20047;-81
2022/12/08 10:54:05;;;;;;;5.60;1.98;;;2.70;93.50;;;;;;5055483;28;20079;-82
2022/12/08 10:56:34;;;;;;;10.07;2.15;;;2.70;93.50;;;;;;5039222;28;20067;-79
2022/12/08 10:59:20;;;;;;;9.63;2.40;;;2.80;93.50;;;;;;5039307;28;20048;-80
2022/12/08 11:01:48;;;;;;;4.40;2.13;;;2.80;93.50;;;;;;5039096;28;20404;-81
2022/12/08 11:04:20;;;;;;;7.60;1.65;;;2.90;93.50;;;;;;5072389;28;20051;-80
2022/12/08 11:06:47;;;;;;;3.63;1.08;;;3.10;93.60;;;;;;5056022;28;20044;-78
2022/12/08 11:09:19;;;;;;;5.72;1.35;;;3.30;93.50;;;;;;5039569;28;20423;-78
2022/12/08 11:11:50;;;;;;;8.20;1.35;;;3.50;93.20;;;;;;5072487;28;20484;-82
2022/12/08 11:14:27;;;;;;;5.35;1.67;;;3.60;93.00;;;;;;5072586;28;20033;-81
2022/12/08 11:17:15;;;;;;;3.65;1.50;;;3.70;92.90;;;;;;5055889;28;20534;-78
2022/12/08 11:19:53;;;;;;;5.22;1.40;;;3.80;92.50;;;;;;5072263;28;20036;-79
2022/12/08 11:22:31;;;;;;;4.35;1.20;;;3.80;92.00;;;;;;5056041;28;20123;-82
2022/12/08 11:25:02;;;;;;;4.88;1.33;;;3.90;92.10;;;;;;5072290;28;20062;-79
2022/12/08 11:27:31;;;;;;;3.40;1.20;;;4.00;91.80;;;;;;5055523;28;20051;-78
2022/12/08 11:29:57;;;;;;;4.57;1.83;;;4.00;91.80;;;;;;5072680;28;20044;-79
2022/12/08 11:32:22;;;;;;;33.40;14.90;;;4.10;91.70;;;;;;5055582;28;20484;-81
2022/12/08 11:34:57;;;;;;;10.88;4.45;;;4.40;91.60;;;;;;5055610;28;20080;-80
2022/12/08 11:37:29;;;;;;;4.95;1.60;;;4.70;91.50;;;;;;5055598;28;20541;-81
2022/12/08 11:39:59;;;;;;;8.05;1.67;;;5.10;91.50;;;;;;5055675;28;20075;-80
2022/12/08 11:42:31;;;;;;;10.38;1.40;;;5.20;90.90;;;;;;5055847;28;20392;-83
2022/12/08 11:45:00;;;;;;;4.25;1.17;;;5.40;91.00;;;;;;5055506;28;20076;-81
2022/12/08 11:47:30;;;;;;;4.95;1.92;;;5.60;90.90;;;;;;5055315;28;20558;-77
2022/12/08 11:50:18;;;;;;;12.00;1.42;;;5.60;90.40;;;;;;5055525;28;20118;-80
2022/12/08 11:52:49;;;;;;;5.13;1.50;;;5.60;90.10;;;;;;5054922;28;20037;-79
2022/12/08 11:55:34;;;;;;;8.15;1.48;;;5.50;89.80;;;;;;5072353;28;20424;-83
2022/12/08 11:58:15;;;;;;;5.13;1.40;;;5.30;89.60;;;;;;5055649;28;20044;-82
2022/12/08 12:00:41;;;;;;;6.22;1.45;;;5.20;89.70;;;;;;5055348;28;20484;-82
2022/12/08 12:03:32;;;;;;;4.60;1.92;;;5.10;89.60;;;;;;5038789;28;20040;-80
2022/12/08 12:06:26;;;;;;;4.03;1.50;;;5.10;89.80;;;;;;5054862;28;20048;-79
2022/12/08 12:09:01;;;;;;;5.20;1.60;;;5.00;89.40;;;;;;5055254;28;20036;-83
2022/12/08 12:14:49;;;;;;;6.00;2.25;;;4.70;90.10;;;;;;5071959;28;20511;-81
2022/12/08 12:17:33;;;;;;;5.40;1.80;;;4.60;89.10;;;;;;5044450;28;20048;-79
2022/12/08 12:20:04;;;;;;;4.20;1.27;;;4.30;89.10;;;;;;5055211;28;20045;-79
2022/12/08 12:22:34;;;;;;;3.67;1.15;;;4.20;89.30;;;;;;5055408;28;20055;-80
2022/12/08 12:25:01;;;;;;;2.53;0.90;;;4.20;89.50;;;;;;5038475;28;20583;-78
2022/12/08 12:27:38;;;;;;;2.72;0.77;;;4.40;89.90;;;;;;5055272;28;20123;-81
2022/12/08 12:30:17;;;;;;;3.20;0.77;;;4.60;90.00;;;;;;5038654;28;20041;-81
2022/12/08 12:32:47;;;;;;;1.63;0.60;;;5.00;90.50;;;;;;5071703;28;20131;-80
2022/12/08 12:35:24;;;;;;;3.60;0.60;;;5.40;90.40;;;;;;5072257;28;20040;-80
2022/12/08 12:37:55;;;;;;;4.35;0.77;;;5.80;90.10;;;;;;5055100;28;20138;-78
2022/12/08 12:40:24;;;;;;;2.88;0.63;;;6.10;89.70;;;;;;5071797;28;20045;-81
2022/12/08 12:42:56;;;;;;;5.28;1.30;;;6.30;89.30;;;;;;5055170;28;20036;-80
2022/12/08 12:45:27;;;;;;;4.65;2.88;;;6.40;89.00;;;;;;5054896;28;20127;-85
2022/12/08 12:47:59;;;;;;;25.20;18.05;;;6.50;88.60;;;;;;5071407;28;20526;-78
2022/12/08 12:50:37;;;;;;;68.57;45.17;;;6.50;88.60;;;;;;5071853;28;20044;-81
2022/12/08 12:53:23;;;;;;;73.80;41.22;;;6.50;88.30;;;;;;5055038;28;20059;-79
2022/12/08 12:55:49;;;;;;;24.83;14.85;;;6.30;88.40;;;;;;5051061;28;20053;-82
2022/12/08 12:58:35;;;;;;;10.50;3.95;;;6.20;88.40;;;;;;5071407;28;20041;-81
2022/12/08 13:01:10;;;;;;;3.10;1.23;;;6.10;88.80;;;;;;5054963;28;20048;-84
2022/12/08 13:04:04;;;;;;;1.42;0.60;;;6.00;88.30;;;;;;5054726;28;20044;-78
2022/12/08 13:06:47;;;;;;;1.92;1.15;;;5.90;88.00;;;;;;5058389;28;20047;-80
2022/12/08 13:09:34;;;;;;;2.65;0.77;;;5.70;87.40;;;;;;5058310;28;20037;-83
2022/12/08 13:12:09;;;;;;;5.55;0.90;;;5.60;87.70;;;;;;5075283;28;20090;-79
2022/12/08 13:14:46;;;;;;;2.45;0.77;;;5.50;87.60;;;;;;5058549;28;20064;-81
2022/12/08 13:17:15;;;;;;;2.70;0.80;;;5.40;87.40;;;;;;5075368;28;20047;-81